Time;durP1;ratioP1;P1;durP2;ratioP2;P2;SDS_P1;SDS_P2;PMS_P1;PMS_P2;Temp;Humidity;BMP_temperature;BMP_pressure;BME280_temperature;BME280_humidity;BME280_pressure;Samples;Min_cycle;Max_cycle;Signal;HPM_P1;HPM_P2
2023/04/15 00:00:38;;;;;;;3.15;0.60;;;6.60;99.90;;;;;;5031251;28;20036;-81
2023/04/15 00:03:05;;;;;;;2.17;0.50;;;6.60;99.90;;;;;;5051256;28;20048;-80
2023/04/15 00:05:31;;;;;;;2.08;0.60;;;6.70;99.90;;;;;;5033949;28;20552;-81
2023/04/15 00:08:00;;;;;;;2.05;0.70;;;6.70;99.90;;;;;;5047722;28;20024;-80
2023/04/15 00:10:26;;;;;;;2.75;0.80;;;6.60;99.90;;;;;;5033894;28;20036;-81
2023/04/15 00:12:52;;;;;;;2.00;0.60;;;6.50;99.90;;;;;;5030908;28;20036;-81
2023/04/15 00:15:18;;;;;;;2.75;0.82;;;6.50;99.90;;;;;;5050085;28;20036;-80
2023/04/15 00:17:44;;;;;;;3.38;1.23;;;6.50;99.90;;;;;;5031170;28;20036;-81
2023/04/15 00:20:11;;;;;;;3.13;0.70;;;6.50;99.90;;;;;;5032519;28;20025;-80
2023/04/15 00:22:36;;;;;;;2.30;0.77;;;6.40;99.90;;;;;;5050428;28;20028;-82
2023/04/15 00:25:02;;;;;;;1.98;0.60;;;6.40;99.90;;;;;;5050073;28;20067;-80
2023/04/15 00:27:29;;;;;;;1.77;0.70;;;6.30;99.90;;;;;;5044815;28;20031;-81
2023/04/15 00:29:55;;;;;;;3.63;0.65;;;6.30;99.90;;;;;;5046050;28;20550;-80
2023/04/15 00:32:20;;;;;;;3.15;0.77;;;6.20;99.90;;;;;;5031443;28;20020;-80
2023/04/15 00:34:46;;;;;;;1.48;0.60;;;6.10;99.90;;;;;;5032723;28;20029;-80
2023/04/15 00:37:12;;;;;;;2.78;0.90;;;6.10;99.90;;;;;;5049854;28;20060;-80
2023/04/15 00:39:38;;;;;;;2.00;0.70;;;6.00;99.90;;;;;;5049183;28;20043;-80
2023/04/15 00:42:04;;;;;;;2.58;0.68;;;5.90;99.90;;;;;;5032715;28;20020;-80
2023/04/15 00:44:31;;;;;;;2.15;0.80;;;5.80;99.90;;;;;;5049616;28;20036;-79
2023/04/15 00:46:58;;;;;;;2.88;0.70;;;5.70;99.90;;;;;;5064361;28;20389;-78
2023/04/15 00:49:24;;;;;;;2.42;0.63;;;5.70;99.90;;;;;;5031557;28;20464;-80
2023/04/15 00:51:50;;;;;;;4.57;0.90;;;5.70;99.90;;;;;;5049437;28;20028;-79
2023/04/15 00:54:16;;;;;;;1.77;0.60;;;5.70;99.90;;;;;;5032555;28;20032;-80
2023/04/15 00:56:42;;;;;;;2.10;0.90;;;5.70;99.90;;;;;;5043004;28;20079;-80
2023/04/15 00:59:08;;;;;;;1.95;0.68;;;5.70;99.90;;;;;;5029924;28;20115;-80
2023/04/15 01:01:37;;;;;;;1.80;0.60;;;5.70;99.90;;;;;;5055333;28;20185;-80
2023/04/15 01:04:04;;;;;;;2.72;1.00;;;5.70;99.90;;;;;;5031707;28;20031;-80
2023/04/15 01:06:31;;;;;;;2.35;0.85;;;5.80;99.90;;;;;;5031744;28;20048;-80
2023/04/15 01:08:57;;;;;;;2.15;0.80;;;5.80;99.90;;;;;;5030203;28;20027;-81
2023/04/15 01:11:24;;;;;;;2.05;0.80;;;5.80;99.90;;;;;;5044605;28;20086;-79
2023/04/15 01:13:51;;;;;;;1.65;0.70;;;5.70;99.90;;;;;;5028534;28;20024;-79
2023/04/15 01:16:18;;;;;;;2.38;0.82;;;5.80;99.90;;;;;;5033315;28;20028;-79
2023/04/15 01:18:44;;;;;;;2.28;0.90;;;5.80;99.90;;;;;;5048605;28;20055;-80
2023/04/15 01:21:11;;;;;;;2.05;0.70;;;5.70;99.90;;;;;;5046125;28;20021;-80
2023/04/15 01:23:38;;;;;;;2.17;0.77;;;5.70;99.90;;;;;;5045691;28;20029;-81
2023/04/15 01:26:07;;;;;;;2.88;0.93;;;5.70;99.90;;;;;;5032330;28;20044;-81
2023/04/15 01:28:34;;;;;;;3.03;0.80;;;5.70;99.90;;;;;;5065051;28;20479;-79
2023/04/15 01:31:07;;;;;;;1.88;0.70;;;5.60;99.90;;;;;;5033496;28;20107;-80
2023/04/15 01:33:36;;;;;;;1.77;0.80;;;5.70;99.90;;;;;;5032554;28;20090;-78
2023/04/15 01:36:03;;;;;;;1.98;1.00;;;5.60;99.90;;;;;;5046165;28;20115;-81
2023/04/15 01:38:29;;;;;;;2.60;0.77;;;5.60;99.90;;;;;;5031431;28;20056;-80
2023/04/15 01:40:55;;;;;;;1.58;0.70;;;5.40;99.90;;;;;;5049368;28;20075;-79
2023/04/15 01:43:21;;;;;;;2.90;0.75;;;5.50;99.90;;;;;;5051689;28;20032;-79
2023/04/15 01:45:46;;;;;;;2.85;0.98;;;5.50;99.90;;;;;;5035818;28;20048;-80
2023/04/15 01:48:12;;;;;;;2.45;0.80;;;5.40;99.90;;;;;;5033267;28;20024;-80
2023/04/15 01:50:37;;;;;;;2.00;0.73;;;5.30;99.90;;;;;;5051707;28;20025;-80
2023/04/15 01:53:03;;;;;;;2.15;0.70;;;5.30;99.90;;;;;;5049943;28;20503;-80
2023/04/15 01:55:29;;;;;;;1.77;0.70;;;5.20;99.90;;;;;;5034895;28;20444;-80
2023/04/15 01:57:56;;;;;;;2.15;0.70;;;5.10;99.90;;;;;;5050940;28;20090;-79
2023/04/15 02:00:22;;;;;;;2.47;0.60;;;5.20;99.90;;;;;;5060555;28;20025;-79
2023/04/15 02:02:48;;;;;;;2.15;0.93;;;5.10;99.90;;;;;;5034001;28;20036;-79
2023/04/15 02:05:14;;;;;;;2.28;1.00;;;5.20;99.90;;;;;;5030880;28;20041;-80
2023/04/15 02:07:46;;;;;;;2.42;1.00;;;5.10;99.90;;;;;;5050215;28;20029;-79
2023/04/15 02:10:15;;;;;;;2.22;0.90;;;5.00;99.90;;;;;;5066574;28;20025;-80
2023/04/15 02:12:41;;;;;;;1.85;0.80;;;4.90;99.90;;;;;;5033194;28;20285;-80
2023/04/15 02:15:09;;;;;;;2.13;0.90;;;4.90;99.90;;;;;;5038404;28;20040;-80
2023/04/15 02:17:35;;;;;;;3.42;0.70;;;4.90;99.90;;;;;;5034062;28;20025;-80
2023/04/15 02:20:01;;;;;;;1.60;0.80;;;5.00;99.90;;;;;;5047955;28;20033;-79
2023/04/15 02:22:28;;;;;;;2.05;0.90;;;4.90;99.90;;;;;;5035665;28;20113;-79
2023/04/15 02:24:53;;;;;;;2.13;0.70;;;4.90;99.90;;;;;;5036226;28;20044;-80
2023/04/15 02:27:19;;;;;;;3.42;0.82;;;5.00;99.90;;;;;;5030838;28;20378;-79
2023/04/15 02:29:45;;;;;;;2.35;0.73;;;5.00;99.90;;;;;;5050068;28;20389;-79
2023/04/15 02:32:12;;;;;;;1.92;0.98;;;5.10;99.90;;;;;;5034663;28;20094;-79
2023/04/15 02:34:40;;;;;;;2.60;0.75;;;5.10;99.90;;;;;;5033883;28;20028;-79
2023/04/15 02:37:11;;;;;;;2.30;0.80;;;5.10;99.90;;;;;;5031414;28;20112;-79
2023/04/15 02:39:37;;;;;;;2.70;0.93;;;5.10;99.90;;;;;;5050583;28;20534;-79
2023/04/15 02:42:04;;;;;;;1.90;0.88;;;5.10;99.90;;;;;;5030834;28;20021;-80
2023/04/15 02:44:31;;;;;;;4.28;1.20;;;5.00;99.90;;;;;;5032739;28;20116;-79
2023/04/15 02:47:00;;;;;;;3.17;0.80;;;5.00;99.90;;;;;;5034569;28;20020;-79
2023/04/15 02:49:28;;;;;;;2.72;0.70;;;4.90;99.90;;;;;;5035326;28;20290;-79
2023/04/15 02:51:54;;;;;;;2.65;0.90;;;4.90;99.90;;;;;;5033168;28;20063;-79
2023/04/15 02:54:21;;;;;;;2.90;0.75;;;5.00;99.90;;;;;;5035585;28;20020;-78
2023/04/15 02:56:47;;;;;;;4.28;1.33;;;4.90;99.90;;;;;;5062839;28;20135;-79
2023/04/15 02:59:13;;;;;;;2.30;1.25;;;4.90;99.90;;;;;;5051975;28;20032;-78
2023/04/15 03:01:39;;;;;;;3.22;0.95;;;4.90;99.90;;;;;;5035228;28;20478;-79
2023/04/15 03:04:06;;;;;;;2.22;0.90;;;4.90;99.90;;;;;;5034665;28;20094;-79
2023/04/15 03:06:32;;;;;;;2.20;0.90;;;4.90;99.90;;;;;;5035699;28;20120;-80
2023/04/15 03:08:59;;;;;;;2.42;0.93;;;5.00;99.90;;;;;;5034893;28;20120;-79
2023/04/15 03:11:28;;;;;;;2.78;0.93;;;5.00;99.90;;;;;;5030516;28;20027;-80
2023/04/15 03:13:54;;;;;;;3.40;0.88;;;5.00;99.90;;;;;;5033373;28;20029;-79
2023/04/15 03:16:30;;;;;;;4.03;1.10;;;5.00;99.90;;;;;;5036497;28;20380;-79
2023/04/15 03:18:57;;;;;;;1.83;0.90;;;5.00;99.90;;;;;;5048979;28;20025;-78
2023/04/15 03:21:23;;;;;;;2.92;0.85;;;5.00;99.90;;;;;;5048207;28;20123;-79
2023/04/15 03:23:49;;;;;;;1.92;0.82;;;5.00;99.90;;;;;;5035183;28;20123;-79
2023/04/15 03:26:28;;;;;;;2.05;0.80;;;5.00;99.90;;;;;;5045608;28;20036;-79
2023/04/15 03:28:57;;;;;;;2.47;0.60;;;5.00;99.90;;;;;;5030092;28;20025;-78
2023/04/15 03:31:23;;;;;;;2.78;0.70;;;5.00;99.90;;;;;;5051220;28;20036;-79
2023/04/15 03:33:49;;;;;;;2.10;0.80;;;5.00;99.90;;;;;;5067454;28;20028;-79
2023/04/15 03:36:15;;;;;;;3.47;1.10;;;5.00;99.90;;;;;;5048213;28;20047;-79
2023/04/15 03:38:41;;;;;;;2.03;0.95;;;5.00;99.90;;;;;;5059050;28;20465;-79
2023/04/15 03:41:08;;;;;;;3.35;1.48;;;5.00;99.90;;;;;;5050108;28;20048;-79
2023/04/15 03:43:34;;;;;;;2.80;0.90;;;5.00;99.90;;;;;;5030575;28;20083;-79
2023/04/15 03:46:00;;;;;;;2.50;0.98;;;4.90;99.90;;;;;;5051656;28;20056;-79
2023/04/15 03:48:25;;;;;;;3.03;0.80;;;5.00;99.90;;;;;;5030848;28;20029;-79
2023/04/15 03:50:51;;;;;;;1.92;0.75;;;5.00;99.90;;;;;;5033842;28;20048;-80
2023/04/15 03:53:16;;;;;;;3.13;0.95;;;4.90;99.90;;;;;;5046743;28;20032;-81
2023/04/15 03:55:43;;;;;;;2.47;0.80;;;5.00;99.90;;;;;;5046060;28;20036;-80
2023/04/15 03:58:11;;;;;;;2.60;1.05;;;5.00;99.90;;;;;;5016592;28;20441;-79
2023/04/15 04:00:38;;;;;;;3.53;1.00;;;5.00;99.90;;;;;;5008143;28;20569;-78
2023/04/15 04:03:04;;;;;;;3.45;0.88;;;4.90;99.90;;;;;;5023863;28;20079;-79
2023/04/15 04:05:29;;;;;;;2.92;1.08;;;4.80;99.90;;;;;;5007160;28;20121;-77
2023/04/15 04:07:56;;;;;;;3.10;1.20;;;4.90;99.90;;;;;;5027460;28;20037;-79
2023/04/15 04:10:22;;;;;;;3.72;1.10;;;4.90;99.90;;;;;;5027743;28;20034;-79
2023/04/15 04:12:47;;;;;;;2.70;1.30;;;4.90;99.90;;;;;;5023716;28;20025;-79
2023/04/15 04:15:13;;;;;;;2.17;1.27;;;5.00;99.90;;;;;;5007504;28;20386;-79
2023/04/15 04:17:39;;;;;;;3.33;1.40;;;5.00;99.90;;;;;;5041425;28;20025;-78
2023/04/15 04:20:06;;;;;;;3.25;1.48;;;5.00;99.90;;;;;;5008052;28;20029;-79
2023/04/15 04:22:37;;;;;;;2.70;1.17;;;4.90;99.90;;;;;;5026783;28;20029;-78
2023/04/15 04:25:03;;;;;;;3.35;1.20;;;5.00;99.90;;;;;;5008963;28;20037;-79
2023/04/15 04:27:29;;;;;;;3.10;1.58;;;5.00;99.90;;;;;;5053168;28;20501;-78
2023/04/15 04:29:55;;;;;;;5.07;1.50;;;5.00;99.90;;;;;;5026770;28;20022;-79
2023/04/15 04:32:20;;;;;;;4.05;2.00;;;5.00;99.90;;;;;;5027510;28;20467;-80
2023/04/15 04:34:46;;;;;;;3.13;1.58;;;5.00;99.90;;;;;;5009370;28;20033;-79
2023/04/15 04:37:12;;;;;;;4.15;1.80;;;5.00;99.90;;;;;;5027047;28;20038;-78
2023/04/15 04:39:38;;;;;;;3.67;1.83;;;4.90;99.90;;;;;;5007403;28;20033;-79
2023/04/15 04:42:04;;;;;;;3.33;1.50;;;5.00;99.90;;;;;;5010469;28;20516;-79
2023/04/15 04:44:30;;;;;;;3.58;1.52;;;5.00;99.90;;;;;;5008935;28;20036;-79
2023/04/15 04:46:55;;;;;;;3.35;1.33;;;4.90;99.90;;;;;;5040997;28;20025;-79
2023/04/15 04:49:21;;;;;;;3.05;1.50;;;4.90;99.90;;;;;;5005405;28;20123;-80
2023/04/15 04:51:47;;;;;;;3.80;1.70;;;4.90;99.90;;;;;;5027127;28;20394;-80
2023/04/15 04:54:13;;;;;;;3.60;1.58;;;4.90;99.90;;;;;;5010730;28;20382;-80
2023/04/15 04:56:39;;;;;;;4.03;1.65;;;4.90;99.90;;;;;;5025767;28;20021;-79
2023/04/15 04:59:08;;;;;;;3.50;1.38;;;4.90;99.90;;;;;;5030072;28;20051;-80
2023/04/15 05:01:34;;;;;;;2.95;1.38;;;4.80;99.90;;;;;;5048704;28;20043;-80
2023/04/15 05:03:59;;;;;;;3.00;1.73;;;4.90;99.90;;;;;;5045551;28;20025;-81
2023/04/15 05:06:25;;;;;;;3.83;1.80;;;4.90;99.90;;;;;;5045099;28;20123;-82
2023/04/15 05:08:51;;;;;;;3.25;1.48;;;4.90;99.90;;;;;;5031016;28;20025;-80
2023/04/15 05:11:16;;;;;;;3.90;1.52;;;4.90;99.90;;;;;;5046628;28;20465;-81
2023/04/15 05:13:42;;;;;;;3.47;1.92;;;4.90;99.90;;;;;;5031564;28;20499;-80
2023/04/15 05:16:08;;;;;;;2.47;1.73;;;4.90;99.90;;;;;;5061146;28;20028;-80
2023/04/15 05:18:33;;;;;;;2.53;1.30;;;4.90;99.90;;;;;;5032346;28;20031;-80
2023/04/15 05:21:01;;;;;;;2.85;1.45;;;5.00;99.90;;;;;;5032898;28;20082;-81
2023/04/15 05:23:27;;;;;;;2.40;1.08;;;5.00;99.90;;;;;;5032283;28;20035;-79
2023/04/15 05:25:52;;;;;;;3.65;1.77;;;5.00;99.90;;;;;;5045665;28;20136;-81
2023/04/15 05:28:18;;;;;;;3.65;1.95;;;5.00;99.90;;;;;;5033287;28;20052;-80
2023/04/15 05:30:44;;;;;;;4.20;2.85;;;5.10;99.90;;;;;;5028695;28;20028;-80
2023/04/15 05:33:10;;;;;;;4.57;2.55;;;5.10;99.90;;;;;;5040743;28;20440;-81
2023/04/15 05:35:36;;;;;;;4.90;2.22;;;5.20;99.90;;;;;;5046452;28;20089;-81
2023/04/15 05:38:02;;;;;;;4.55;2.10;;;5.30;99.90;;;;;;5032252;28;20024;-80
2023/04/15 05:40:29;;;;;;;4.28;2.47;;;5.40;99.90;;;;;;5028770;28;20028;-80
2023/04/15 05:42:55;;;;;;;5.18;2.20;;;5.50;99.90;;;;;;5033076;28;20036;-80
2023/04/15 05:45:21;;;;;;;4.00;1.77;;;5.50;99.90;;;;;;5049632;28;20040;-80
2023/04/15 05:47:49;;;;;;;5.65;2.42;;;5.60;99.90;;;;;;5046208;28;20464;-80
2023/04/15 05:50:15;;;;;;;3.50;1.83;;;5.70;99.90;;;;;;5029308;28;20128;-80
2023/04/15 05:52:40;;;;;;;5.18;2.60;;;5.70;99.90;;;;;;5031990;28;20103;-80
2023/04/15 05:55:06;;;;;;;3.35;1.35;;;5.80;99.90;;;;;;5031485;28;20040;-79
2023/04/15 05:57:32;;;;;;;5.45;3.45;;;5.80;99.90;;;;;;5032983;28;20076;-79
2023/04/15 05:59:57;;;;;;;4.80;3.05;;;5.80;99.90;;;;;;5032648;28;20107;-80
2023/04/15 06:02:23;;;;;;;4.22;1.98;;;5.80;99.90;;;;;;5030301;28;20032;-80
2023/04/15 06:04:49;;;;;;;3.90;2.10;;;5.80;99.90;;;;;;5028638;28;20059;-80
2023/04/15 06:07:14;;;;;;;4.80;2.97;;;5.80;99.90;;;;;;5060432;28;20029;-79
2023/04/15 06:09:40;;;;;;;5.53;2.17;;;5.90;99.90;;;;;;5049058;28;20044;-80
2023/04/15 06:12:10;;;;;;;3.78;2.13;;;5.90;99.90;;;;;;5047951;28;20362;-79
2023/04/15 06:14:37;;;;;;;4.13;2.17;;;6.00;99.90;;;;;;5030896;28;20032;-80
2023/04/15 06:17:03;;;;;;;3.83;1.90;;;6.10;99.90;;;;;;5029986;28;20131;-79
2023/04/15 06:19:29;;;;;;;4.13;2.47;;;6.20;99.90;;;;;;5029476;28;20116;-80
2023/04/15 06:21:54;;;;;;;4.53;2.53;;;6.20;99.90;;;;;;5049206;28;20082;-80
2023/04/15 06:24:20;;;;;;;3.83;1.88;;;6.40;99.90;;;;;;5032571;28;20406;-80
2023/04/15 06:26:46;;;;;;;3.72;2.25;;;6.50;99.90;;;;;;5050809;28;20040;-80
2023/04/15 06:29:11;;;;;;;4.88;3.08;;;6.70;99.90;;;;;;5048828;28;20108;-80
2023/04/15 06:31:37;;;;;;;3.63;1.90;;;6.80;99.90;;;;;;5035393;28;20060;-80
2023/04/15 06:34:03;;;;;;;3.58;2.20;;;6.90;99.90;;;;;;5044300;28;20078;-81
2023/04/15 06:36:28;;;;;;;3.83;3.00;;;7.00;99.90;;;;;;5032403;28;20384;-80
2023/04/15 06:38:55;;;;;;;3.75;1.95;;;7.00;99.90;;;;;;5034386;28;20051;-81
2023/04/15 06:41:21;;;;;;;3.58;1.92;;;7.10;99.90;;;;;;5035044;28;20024;-81
2023/04/15 06:43:47;;;;;;;2.40;1.45;;;7.10;99.90;;;;;;5035533;28;20123;-80
2023/04/15 06:46:12;;;;;;;3.08;1.60;;;7.20;99.90;;;;;;5033833;28;20556;-80
2023/04/15 06:48:38;;;;;;;2.92;1.77;;;7.30;99.90;;;;;;5048693;28;20055;-80
2023/04/15 06:51:04;;;;;;;4.40;2.00;;;7.50;99.90;;;;;;5047613;28;20073;-79
2023/04/15 06:53:29;;;;;;;3.17;1.58;;;7.50;99.90;;;;;;5030761;28;20487;-80
2023/04/15 06:55:55;;;;;;;4.47;2.15;;;7.60;99.90;;;;;;5063210;28;20035;-81
2023/04/15 06:58:21;;;;;;;5.10;3.28;;;7.60;99.90;;;;;;5035502;28;20278;-80
2023/04/15 07:00:47;;;;;;;4.22;2.88;;;7.60;99.90;;;;;;5050637;28;20036;-80
2023/04/15 07:03:13;;;;;;;4.03;3.08;;;7.70;99.90;;;;;;5048265;28;20025;-82
2023/04/15 07:05:40;;;;;;;4.35;2.90;;;7.80;99.90;;;;;;5032012;28;20095;-80
2023/04/15 07:08:06;;;;;;;3.25;2.28;;;7.90;99.90;;;;;;5033390;28;20120;-80
2023/04/15 07:10:35;;;;;;;3.80;2.20;;;7.90;99.90;;;;;;5030429;28;20024;-80
2023/04/15 07:13:01;;;;;;;3.47;1.88;;;8.00;99.90;;;;;;5034579;28;20102;-81
2023/04/15 07:15:26;;;;;;;3.00;1.73;;;8.20;99.90;;;;;;5049569;28;20072;-80
2023/04/15 07:17:52;;;;;;;5.10;3.20;;;8.30;99.90;;;;;;5035203;28;20025;-81
2023/04/15 07:20:18;;;;;;;4.68;2.97;;;8.40;99.90;;;;;;5048902;28;20028;-82
2023/04/15 07:22:43;;;;;;;3.00;2.22;;;8.50;99.90;;;;;;5028099;28;20064;-82
2023/04/15 07:25:09;;;;;;;4.18;3.10;;;8.60;99.90;;;;;;5030673;28;20037;-82
2023/04/15 07:27:35;;;;;;;6.00;3.53;;;8.70;99.90;;;;;;5033129;28;20388;-80
2023/04/15 07:30:01;;;;;;;6.78;3.97;;;8.70;99.90;;;;;;5032495;28;20029;-82
2023/04/15 07:32:27;;;;;;;6.25;3.40;;;8.70;99.90;;;;;;5052218;28;20039;-83
2023/04/15 07:34:52;;;;;;;6.13;4.13;;;8.80;99.90;;;;;;5035425;28;20033;-81
2023/04/15 07:37:18;;;;;;;5.45;3.88;;;8.90;99.90;;;;;;5046333;28;20035;-83
2023/04/15 07:39:44;;;;;;;4.28;3.13;;;9.00;99.90;;;;;;5032953;28;20025;-83
2023/04/15 07:42:10;;;;;;;8.07;4.30;;;9.20;99.90;;;;;;5034623;28;20035;-82
2023/04/15 07:44:35;;;;;;;5.22;3.63;;;9.30;99.90;;;;;;5000795;28;20048;-83
2023/04/15 07:47:02;;;;;;;6.18;4.25;;;9.30;99.90;;;;;;5020997;28;20050;-83
2023/04/15 07:49:28;;;;;;;4.90;3.45;;;9.50;99.90;;;;;;5023561;28;20040;-83
2023/04/15 07:51:53;;;;;;;9.32;6.88;;;9.50;99.90;;;;;;5021349;28;20114;-83
2023/04/15 07:54:19;;;;;;;7.88;5.63;;;9.30;99.90;;;;;;5028166;28;20040;-82
2023/04/15 07:56:45;;;;;;;6.45;4.72;;;9.30;99.90;;;;;;5020309;28;20536;-84
2023/04/15 07:59:11;;;;;;;7.43;4.72;;;9.50;99.90;;;;;;5025623;28;20032;-84
2023/04/15 08:01:37;;;;;;;8.05;4.80;;;9.40;99.90;;;;;;5033618;28;20048;-84
2023/04/15 08:04:03;;;;;;;6.72;4.35;;;9.30;99.90;;;;;;5034374;28;20475;-83
2023/04/15 08:06:29;;;;;;;7.95;4.80;;;9.40;99.90;;;;;;5031087;28;20032;-85
2023/04/15 08:08:55;;;;;;;6.45;4.68;;;9.40;99.90;;;;;;5034463;28;20020;-84
2023/04/15 08:11:21;;;;;;;7.53;5.78;;;9.50;99.90;;;;;;5031218;28;20138;-86
2023/04/15 08:13:47;;;;;;;6.65;5.28;;;9.60;99.90;;;;;;5031964;28;20641;-84
2023/04/15 08:16:19;;;;;;;5.07;3.90;;;9.70;99.90;;;;;;5034867;28;20265;-83
2023/04/15 08:18:48;;;;;;;4.70;3.13;;;9.80;99.90;;;;;;5047462;28;20032;-84
2023/04/15 08:21:15;;;;;;;5.15;3.42;;;9.90;99.90;;;;;;5034895;28;20361;-83
2023/04/15 08:23:41;;;;;;;5.70;3.88;;;9.90;99.90;;;;;;5064785;28;20040;-84
2023/04/15 08:26:07;;;;;;;5.63;3.28;;;10.00;99.90;;;;;;5049839;28;20036;-85
2023/04/15 08:28:33;;;;;;;6.07;4.00;;;10.20;99.90;;;;;;5050982;28;20040;-85
2023/04/15 08:30:59;;;;;;;4.53;3.53;;;10.30;99.90;;;;;;5052340;28;20465;-86
2023/04/15 08:33:25;;;;;;;5.28;3.22;;;10.30;99.90;;;;;;5051171;28;20067;-83
2023/04/15 08:35:50;;;;;;;4.72;3.80;;;10.30;99.90;;;;;;5044922;28;20537;-84
2023/04/15 08:38:17;;;;;;;4.30;3.42;;;10.30;99.90;;;;;;5067979;28;20528;-85
2023/04/15 08:40:45;;;;;;;3.97;2.90;;;10.30;99.90;;;;;;5028228;28;20690;-84
2023/04/15 08:43:34;;;;;;;4.07;3.00;;;10.60;99.90;;;;;;5064531;28;20020;-86
2023/04/15 08:46:01;;;;;;;3.95;2.90;;;10.50;99.90;;;;;;5038286;28;20033;-86
2023/04/15 08:48:31;;;;;;;4.45;3.30;;;10.60;99.90;;;;;;5044938;28;20017;-84
2023/04/15 08:50:57;;;;;;;;;;;10.50;99.90;;;;;;5051034;28;20025;-84
2023/04/15 08:53:24;;;;;;;4.03;2.88;;;10.60;99.90;;;;;;5076410;28;20001;-85
2023/04/15 08:55:51;;;;;;;4.68;2.75;;;10.80;99.90;;;;;;5028505;28;20388;-88
2023/04/15 08:58:18;;;;;;;3.00;1.80;;;10.90;99.90;;;;;;5052092;28;20052;-90
2023/04/15 09:00:44;;;;;;;4.88;3.13;;;11.10;99.90;;;;;;5033869;28;20093;-85
2023/04/15 09:03:10;;;;;;;7.13;3.58;;;11.10;99.90;;;;;;5033567;28;20035;-86
2023/04/15 09:05:37;;;;;;;3.60;2.78;;;11.30;99.90;;;;;;5033166;28;20366;-86
2023/04/15 09:08:04;;;;;;;2.83;2.03;;;11.40;99.90;;;;;;5059079;28;20064;-87
2023/04/15 09:10:30;;;;;;;3.60;1.67;;;11.60;99.90;;;;;;5033339;28;20047;-89
2023/04/15 09:12:56;;;;;;;2.97;1.58;;;11.80;99.90;;;;;;5034046;28;20035;-87
2023/04/15 09:15:28;;;;;;;3.70;2.42;;;11.80;99.90;;;;;;5033241;28;20036;-84
2023/04/15 09:17:55;;;;;;;2.85;1.92;;;11.50;99.90;;;;;;5033870;28;20043;-84
2023/04/15 09:20:21;;;;;;;5.93;2.10;;;11.70;99.90;;;;;;5031815;28;20094;-89
2023/04/15 09:22:49;;;;;;;3.92;1.73;;;11.70;99.90;;;;;;5035357;28;20041;-85
2023/04/15 09:25:15;;;;;;;2.53;1.40;;;11.90;99.90;;;;;;5027231;28;20044;-84
2023/04/15 09:27:50;;;;;;;3.17;1.20;;;12.10;99.90;;;;;;5035634;28;20540;-84
2023/04/15 09:30:16;;;;;;;3.50;1.83;;;12.20;99.90;;;;;;5052072;28;20028;-89
2023/04/15 09:32:50;;;;;;;3.65;1.83;;;11.80;99.90;;;;;;5053289;28;20119;-90
2023/04/15 09:35:16;;;;;;;2.97;1.65;;;12.00;99.90;;;;;;5033774;28;20093;-89
2023/04/15 09:37:41;;;;;;;2.03;0.82;;;12.40;99.90;;;;;;5035108;28;20024;-86
2023/04/15 09:40:08;;;;;;;2.53;1.08;;;12.70;99.90;;;;;;5027730;28;20033;-85
2023/04/15 09:42:35;;;;;;;2.45;0.98;;;12.90;99.90;;;;;;5034172;28;20081;-86
2023/04/15 09:45:10;;;;;;;2.13;0.70;;;13.30;99.90;;;;;;5035941;28;20029;-88
2023/04/15 09:47:36;;;;;;;2.90;1.60;;;13.50;99.90;;;;;;5031639;28;20392;-84
2023/04/15 09:50:03;;;;;;;5.35;2.47;;;13.40;99.90;;;;;;5033746;28;20492;-85
2023/04/15 09:52:29;;;;;;;5.00;2.53;;;12.90;99.90;;;;;;5041828;28;20071;-85
2023/04/15 09:54:59;;;;;;;3.40;2.03;;;12.10;99.90;;;;;;5031563;28;20068;-85
2023/04/15 09:57:34;;;;;;;4.65;2.70;;;12.30;99.90;;;;;;5039026;28;20408;-84
2023/04/15 10:00:00;;;;;;;5.20;2.80;;;12.30;99.90;;;;;;5033584;28;20032;-84
2023/04/15 10:02:27;;;;;;;3.45;1.70;;;12.30;99.90;;;;;;5038045;28;20104;-84
2023/04/15 10:04:53;;;;;;;2.53;1.50;;;12.70;99.90;;;;;;5043405;28;20388;-84
2023/04/15 10:07:21;;;;;;;3.42;1.40;;;13.30;99.90;;;;;;5059651;28;20111;-86
2023/04/15 10:09:50;;;;;;;4.20;2.08;;;13.00;99.90;;;;;;5056915;28;20485;-84
2023/04/15 10:12:17;;;;;;;3.95;2.00;;;12.70;99.90;;;;;;5055170;28;20078;-84
2023/04/15 10:14:43;;;;;;;2.90;1.70;;;12.30;99.90;;;;;;5041054;28;20091;-85
2023/04/15 10:17:11;;;;;;;2.92;1.27;;;12.40;99.90;;;;;;5039020;28;20043;-85
2023/04/15 10:19:39;;;;;;;4.22;1.40;;;12.60;99.90;;;;;;5054306;28;20123;-85
2023/04/15 10:22:05;;;;;;;1.70;0.90;;;12.40;99.90;;;;;;5033493;28;20036;-86
2023/04/15 10:24:31;;;;;;;2.03;1.00;;;12.70;99.90;;;;;;5052308;28;20530;-85
2023/04/15 10:26:58;;;;;;;2.50;1.50;;;13.00;99.90;;;;;;5053676;28;20059;-83
2023/04/15 10:29:26;;;;;;;4.00;1.30;;;12.50;99.90;;;;;;5039201;28;20024;-84
2023/04/15 10:31:55;;;;;;;4.45;2.22;;;12.20;99.90;;;;;;5037519;28;20341;-80
2023/04/15 10:34:22;;;;;;;2.67;1.30;;;12.20;99.90;;;;;;5033852;28;20028;-84
2023/04/15 10:36:48;;;;;;;3.85;1.30;;;12.40;99.90;;;;;;5042876;28;20438;-83
2023/04/15 10:39:36;;;;;;;5.18;2.28;;;12.30;99.90;;;;;;5035629;28;20074;-83
2023/04/15 10:42:12;;;;;;;6.22;2.28;;;12.60;99.90;;;;;;5065333;28;20025;-75
2023/04/15 10:44:43;;;;;;;2.60;1.23;;;12.80;99.90;;;;;;5046326;28;20025;-76
2023/04/15 10:47:17;;;;;;;4.13;1.02;;;13.10;99.90;;;;;;5066943;28;20032;-74
2023/04/15 10:49:49;;;;;;;3.38;1.17;;;12.90;99.90;;;;;;5050087;28;20477;-80
2023/04/15 10:52:23;;;;;;;2.88;1.02;;;13.00;99.90;;;;;;5063706;28;20032;-75
2023/04/15 10:54:48;;;;;;;1.77;0.73;;;13.10;99.90;;;;;;5048044;28;20029;-75
2023/04/15 10:57:22;;;;;;;3.38;0.90;;;13.20;99.90;;;;;;5034946;28;20057;-77
2023/04/15 10:59:57;;;;;;;4.60;1.33;;;13.10;99.90;;;;;;5050557;28;20029;-78
2023/04/15 11:02:57;;;;;;;2.45;0.90;;;12.90;99.90;;;;;;5066651;28;20109;-78
2023/04/15 11:05:48;;;;;;;2.03;0.90;;;12.80;99.90;;;;;;5051010;28;20485;-80
2023/04/15 11:08:15;;;;;;;1.80;0.60;;;13.00;99.90;;;;;;5045703;28;20027;-75
2023/04/15 11:10:40;;;;;;;1.20;0.50;;;13.30;99.90;;;;;;5053518;28;20047;-81
2023/04/15 11:13:09;;;;;;;1.80;0.70;;;13.70;99.90;;;;;;5068989;28;20025;-77
2023/04/15 11:15:39;;;;;;;1.48;0.55;;;13.60;99.90;;;;;;5031944;28;20075;-79
2023/04/15 11:18:15;;;;;;;2.78;0.80;;;13.60;99.90;;;;;;5048393;28;20040;-78
2023/04/15 11:20:58;;;;;;;1.60;0.70;;;13.40;99.90;;;;;;5049165;28;20033;-78
2023/04/15 11:23:30;;;;;;;2.33;0.90;;;13.30;99.90;;;;;;5065432;28;20107;-81
2023/04/15 11:25:57;;;;;;;3.28;1.05;;;12.90;99.90;;;;;;5080316;28;20045;-78
2023/04/15 11:28:28;;;;;;;1.73;0.80;;;13.30;99.90;;;;;;5067051;28;20473;-78
2023/04/15 11:30:54;;;;;;;2.75;1.30;;;13.90;99.90;;;;;;5064141;28;20056;-82
2023/04/15 11:33:21;;;;;;;1.55;0.70;;;13.60;99.90;;;;;;5051080;28;20111;-80
2023/04/15 11:35:47;;;;;;;1.83;0.43;;;14.40;99.90;;;;;;5066540;28;20106;-80
2023/04/15 11:38:14;;;;;;;2.13;0.57;;;14.50;99.90;;;;;;5065769;28;20472;-82
2023/04/15 11:40:40;;;;;;;4.18;0.82;;;13.80;99.90;;;;;;5049008;28;20072;-80
2023/04/15 11:43:12;;;;;;;2.10;0.80;;;13.00;99.90;;;;;;5051018;28;20050;-77
2023/04/15 11:45:56;;;;;;;2.60;0.70;;;12.70;99.90;;;;;;5063407;28;20044;-78
2023/04/15 11:48:27;;;;;;;2.60;0.70;;;13.00;99.90;;;;;;5050357;28;20040;-81
2023/04/15 11:50:53;;;;;;;3.08;0.70;;;12.90;99.90;;;;;;5050362;28;20061;-79
2023/04/15 11:53:19;;;;;;;2.13;0.80;;;13.00;99.90;;;;;;5048195;28;20032;-78
2023/04/15 11:55:45;;;;;;;4.47;1.00;;;13.20;99.90;;;;;;5063846;28;20029;-78
2023/04/15 11:58:17;;;;;;;1.52;0.50;;;13.10;99.90;;;;;;5049612;28;20048;-75
2023/04/15 12:00:47;;;;;;;3.58;0.52;;;13.40;99.90;;;;;;5055325;28;20099;-75
2023/04/15 12:03:49;;;;;;;1.65;0.50;;;13.40;99.90;;;;;;5049205;28;20029;-76
2023/04/15 12:06:20;;;;;;;3.30;0.82;;;13.30;99.90;;;;;;5002583;28;20090;-75
2023/04/15 12:08:54;;;;;;;2.00;0.60;;;13.00;99.90;;;;;;5064924;28;20032;-76
2023/04/15 12:11:30;;;;;;;3.08;0.63;;;12.70;99.90;;;;;;5074762;28;20033;-78
2023/04/15 12:14:03;;;;;;;1.17;0.60;;;12.60;99.90;;;;;;5029885;28;20020;-82
2023/04/15 12:16:28;;;;;;;2.05;0.50;;;12.60;99.90;;;;;;5045147;28;20046;-77
2023/04/15 12:18:57;;;;;;;2.05;0.50;;;12.60;99.90;;;;;;5067464;28;20115;-83
2023/04/15 12:21:25;;;;;;;1.50;0.50;;;12.80;99.90;;;;;;5036108;28;20028;-80
2023/04/15 12:23:52;;;;;;;1.35;0.50;;;13.00;99.90;;;;;;5045385;28;20031;-76
2023/04/15 12:26:24;;;;;;;1.63;0.40;;;13.00;99.90;;;;;;5056302;28;20037;-78
2023/04/15 12:28:54;;;;;;;0.90;0.30;;;13.10;99.90;;;;;;5049448;28;20396;-79
2023/04/15 12:31:20;;;;;;;0.90;0.30;;;13.00;99.90;;;;;;5046571;28;20028;-76
2023/04/15 12:33:48;;;;;;;1.00;0.30;;;13.10;99.90;;;;;;5072440;28;20040;-82
2023/04/15 12:36:13;;;;;;;2.13;0.47;;;12.90;99.90;;;;;;5048674;28;20392;-79
2023/04/15 12:38:39;;;;;;;1.48;0.40;;;13.10;99.90;;;;;;5046674;28;20024;-77
2023/04/15 12:41:05;;;;;;;1.63;0.40;;;13.00;99.90;;;;;;5046657;28;20043;-77
2023/04/15 12:43:30;;;;;;;1.63;0.40;;;12.70;99.90;;;;;;5045165;28;20020;-77
2023/04/15 12:45:56;;;;;;;1.35;0.30;;;12.60;99.90;;;;;;5044577;28;20037;-80
2023/04/15 12:48:22;;;;;;;1.45;0.30;;;12.80;99.90;;;;;;5064360;28;20027;-82
2023/04/15 12:50:47;;;;;;;1.25;0.30;;;12.90;99.90;;;;;;5027622;28;20405;-83
2023/04/15 12:53:13;;;;;;;2.30;0.40;;;13.20;99.90;;;;;;5048206;28;20391;-80